Time;durP1;ratioP1;P1;durP2;ratioP2;P2;SDS_P1;SDS_P2;PMS_P1;PMS_P2;Temp;Humidity;BMP_temperature;BMP_pressure;BME280_temperature;BME280_humidity;BME280_pressure;Samples;Min_cycle;Max_cycle;Signal;HPM_P1;HPM_P2
2022/07/04 00:00:17;;;;;;;4.78;1.77;;;;;;;21.99;55.74;100783.78;5000730;28;20632;-53
2022/07/04 00:02:46;;;;;;;3.30;2.15;;;;;;;21.95;55.98;100782.44;5014009;28;20176;-52
2022/07/04 00:05:14;;;;;;;4.30;2.15;;;;;;;21.88;56.28;100786.75;5006849;28;20483;-56
2022/07/04 00:07:44;;;;;;;3.50;1.98;;;;;;;21.84;56.17;100786.25;4990976;28;20049;-56
2022/07/04 00:10:13;;;;;;;4.72;1.92;;;;;;;21.84;56.30;100782.69;5003111;28;20061;-54
2022/07/04 00:12:41;;;;;;;2.78;1.70;;;;;;;21.84;56.73;100782.69;5007660;28;20058;-57
2022/07/04 00:15:09;;;;;;;2.38;1.73;;;;;;;21.76;56.88;100780.84;5002653;28;20061;-54
2022/07/04 00:17:37;;;;;;;3.78;1.88;;;;;;;21.69;57.08;100779.78;5006825;28;20058;-54
2022/07/04 00:20:06;;;;;;;3.05;1.70;;;;;;;21.68;57.71;100784.31;5005589;28;20050;-52
2022/07/04 00:22:33;;;;;;;3.47;1.70;;;;;;;21.64;57.96;100780.25;5010563;28;20045;-55
2022/07/04 00:25:01;;;;;;;2.53;1.85;;;;;;;21.54;58.46;100782.22;5007179;28;20056;-57
2022/07/04 00:27:28;;;;;;;2.78;1.55;;;;;;;21.48;58.67;100789.03;5007937;28;20518;-56
2022/07/04 00:29:55;;;;;;;4.05;1.42;;;;;;;21.36;59.38;100794.81;5008078;28;20164;-54
2022/07/04 00:32:23;;;;;;;3.08;1.73;;;;;;;21.31;59.60;100786.38;4987617;28;20064;-58
2022/07/04 00:34:50;;;;;;;4.45;1.80;;;;;;;21.26;60.06;100777.97;5000223;28;20514;-54
2022/07/04 00:37:17;;;;;;;2.20;1.73;;;;;;;21.20;59.39;100774.06;5012600;28;20078;-55
2022/07/04 00:39:44;;;;;;;3.53;1.80;;;;;;;21.18;60.48;100773.38;4991761;28;20357;-57
2022/07/04 00:42:12;;;;;;;2.88;1.63;;;;;;;21.15;60.26;100777.19;5006111;28;20446;-54
2022/07/04 00:44:39;;;;;;;4.03;1.52;;;;;;;21.10;60.61;100776.00;5014169;28;20046;-56
2022/07/04 00:47:07;;;;;;;8.07;1.70;;;;;;;21.02;60.82;100775.91;5005352;28;20510;-54
2022/07/04 00:49:35;;;;;;;3.45;1.80;;;;;;;20.94;61.14;100772.19;5011392;28;20309;-56
2022/07/04 00:52:03;;;;;;;12.73;2.10;;;;;;;20.90;61.58;100761.94;5008971;28;20053;-54
2022/07/04 00:54:32;;;;;;;5.60;1.73;;;;;;;20.86;62.03;100755.22;5003631;28;20053;-54
2022/07/04 00:57:00;;;;;;;3.97;1.63;;;;;;;20.84;61.73;100750.00;4998692;28;20065;-55
2022/07/04 00:59:27;;;;;;;1.92;1.60;;;;;;;20.82;62.30;100748.50;4987818;28;20038;-56
2022/07/04 01:01:54;;;;;;;5.35;1.75;;;;;;;20.80;62.29;100747.78;5004071;28;20068;-54
2022/07/04 01:04:22;;;;;;;3.15;1.85;;;;;;;20.74;62.58;100752.75;5005963;28;20073;-52
2022/07/04 01:06:50;;;;;;;5.00;1.83;;;;;;;20.72;62.88;100760.13;5003989;28;20053;-57
2022/07/04 01:09:17;;;;;;;3.50;1.90;;;;;;;20.70;62.95;100779.97;5003589;28;20064;-54
2022/07/04 01:11:44;;;;;;;4.90;1.73;;;;;;;20.62;63.18;100786.06;5014272;28;20045;-54
2022/07/04 01:14:11;;;;;;;5.88;1.70;;;;;;;20.58;63.24;100791.88;5003302;28;20054;-57
2022/07/04 01:16:39;;;;;;;5.05;1.70;;;;;;;20.54;63.94;100801.22;5008471;28;20693;-55
2022/07/04 01:19:06;;;;;;;2.78;1.75;;;;;;;20.46;63.76;100799.25;5015865;28;20052;-57
2022/07/04 01:21:33;;;;;;;3.13;2.10;;;;;;;20.38;65.14;100808.03;5014855;28;20386;-56
2022/07/04 01:24:00;;;;;;;5.53;1.52;;;;;;;20.33;64.67;100812.97;5005408;28;20625;-55
2022/07/04 01:26:28;;;;;;;3.05;1.55;;;;;;;20.28;65.77;100807.25;5009488;28;20057;-55
2022/07/04 01:28:55;;;;;;;2.47;1.58;;;;;;;20.24;66.04;100808.53;4993295;28;20050;-54
2022/07/04 01:31:23;;;;;;;2.72;1.42;;;;;;;20.20;65.88;100813.31;5010863;28;20596;-55
2022/07/04 01:33:50;;;;;;;7.90;1.92;;;;;;;20.17;66.25;100818.97;5002295;28;20069;-56
2022/07/04 01:36:17;;;;;;;2.72;1.77;;;;;;;20.13;66.89;100820.25;5005000;28;20054;-54
2022/07/04 01:38:44;;;;;;;4.00;1.92;;;;;;;20.09;66.93;100821.53;5008342;28;20057;-57
2022/07/04 01:41:11;;;;;;;5.47;1.83;;;;;;;20.02;67.43;100825.78;5006474;28;20050;-55
2022/07/04 01:43:38;;;;;;;3.03;1.52;;;;;;;19.98;68.44;100835.06;5003623;28;20065;-56
2022/07/04 01:46:06;;;;;;;3.08;1.98;;;;;;;19.94;67.73;100839.03;5008775;28;20092;-55
2022/07/04 01:48:33;;;;;;;1.95;1.55;;;;;;;19.90;68.93;100835.81;5012967;28;20068;-56
2022/07/04 01:51:00;;;;;;;1.98;1.63;;;;;;;19.86;69.26;100847.78;5001834;28;20046;-58
2022/07/04 01:53:28;;;;;;;4.68;1.83;;;;;;;19.73;70.98;100847.25;5015350;28;20038;-56
2022/07/04 01:55:55;;;;;;;4.05;1.77;;;;;;;19.67;70.28;100840.63;5016454;28;20045;-53
2022/07/04 01:58:22;;;;;;;4.63;1.90;;;;;;;19.60;72.11;100849.34;5009024;28;20058;-55
2022/07/04 02:03:36;;;;;;;2.90;1.85;;;;;;;19.47;72.96;100849.66;5010903;28;20070;-52
2022/07/04 02:06:04;;;;;;;3.80;2.25;;;;;;;19.36;74.03;100853.34;5005354;28;20525;-56
2022/07/04 02:09:14;;;;;;;4.07;1.88;;;;;;;19.32;75.21;100864.41;5009360;28;20318;-58
2022/07/04 02:11:18;;;;;;;7.00;2.42;;;;;;;19.27;75.18;100872.00;5009140;28;20465;-59
2022/07/04 02:13:45;;;;;;;4.78;2.10;;;;;;;19.22;74.82;100862.56;5004245;28;20077;-58
2022/07/04 02:16:12;;;;;;;3.17;2.00;;;;;;;19.15;77.19;100872.16;5011140;28;20791;-56
2022/07/04 02:18:40;;;;;;;5.63;2.55;;;;;;;19.07;79.41;100865.81;5013299;28;20125;-55
2022/07/04 02:21:07;;;;;;;4.07;2.42;;;;;;;19.00;79.05;100860.19;5011646;28;20507;-61
2022/07/04 02:23:34;;;;;;;3.58;2.50;;;;;;;18.95;79.71;100870.44;5012658;28;20133;-58
2022/07/04 02:26:01;;;;;;;4.85;2.63;;;;;;;18.85;82.44;100875.75;5001274;28;20042;-59
2022/07/04 02:28:28;;;;;;;4.78;3.15;;;;;;;18.76;84.22;100873.06;5010734;28;20387;-56
2022/07/04 02:30:56;;;;;;;7.47;3.42;;;;;;;18.71;84.62;100869.00;5003612;28;20061;-58
2022/07/04 02:33:23;;;;;;;5.15;3.28;;;;;;;18.69;84.43;100870.13;5013626;28;20053;-56
2022/07/04 02:35:50;;;;;;;5.30;3.30;;;;;;;18.64;85.10;100872.28;5007186;28;20070;-56
2022/07/04 02:38:17;;;;;;;5.57;3.67;;;;;;;18.62;86.88;100877.78;5003688;28;20434;-55
2022/07/04 02:40:44;;;;;;;4.13;3.67;;;;;;;18.57;88.16;100882.69;5006060;28;20054;-54
2022/07/04 02:43:11;;;;;;;7.05;4.75;;;;;;;18.51;90.08;100883.22;5009896;28;20054;-58
2022/07/04 02:45:39;;;;;;;6.53;5.35;;;;;;;18.42;90.81;100884.88;5011142;28;20050;-57
2022/07/04 02:48:06;;;;;;;10.45;4.75;;;;;;;18.38;90.85;100882.63;5005956;28;20511;-54
2022/07/04 02:50:33;;;;;;;5.30;4.80;;;;;;;18.33;91.60;100884.84;5002024;28;20068;-53
2022/07/04 02:53:00;;;;;;;7.63;5.70;;;;;;;18.25;93.04;100884.66;5007768;28;20069;-61
2022/07/04 02:55:27;;;;;;;9.18;4.68;;;;;;;18.23;92.44;100887.44;5003639;28;20054;-56
2022/07/04 02:57:54;;;;;;;5.10;4.05;;;;;;;18.25;91.71;100895.31;5005847;28;20053;-55
2022/07/04 03:00:22;;;;;;;8.88;4.93;;;;;;;18.25;91.96;100898.84;5008348;28;20048;-57
2022/07/04 03:02:49;;;;;;;5.55;4.90;;;;;;;18.20;93.03;100885.06;5013411;28;20050;-56
2022/07/04 03:05:16;;;;;;;10.18;5.57;;;;;;;18.20;92.62;100896.56;4998966;28;20062;-55
2022/07/04 03:07:43;;;;;;;6.60;5.00;;;;;;;18.21;93.37;100895.59;5000452;28;20145;-57
2022/07/04 03:10:10;;;;;;;5.82;4.78;;;;;;;18.19;93.56;100889.56;4991588;28;20053;-56
2022/07/04 03:12:37;;;;;;;7.70;4.22;;;;;;;18.23;92.58;100882.94;5014357;28;20053;-54
2022/07/04 03:15:05;;;;;;;8.57;5.07;;;;;;;18.28;92.14;100877.25;5003914;28;20526;-58
2022/07/04 03:17:32;;;;;;;9.13;4.75;;;;;;;18.36;91.86;100881.91;4997596;28;20041;-55
2022/07/04 03:20:00;;;;;;;7.32;5.15;;;;;;;18.40;91.92;100877.97;4989623;28;20073;-53
2022/07/04 03:22:27;;;;;;;9.20;5.28;;;;;;;18.40;91.38;100880.66;5008013;28;20065;-56
2022/07/04 03:24:54;;;;;;;9.57;6.15;;;;;;;18.44;92.12;100890.06;5003023;28;20042;-55
2022/07/04 03:27:21;;;;;;;10.55;5.50;;;;;;;18.42;91.29;100900.03;5005827;28;20463;-55
2022/07/04 03:29:48;;;;;;;6.63;4.95;;;;;;;18.37;91.63;100911.09;5003840;28;20057;-58
2022/07/04 03:32:16;;;;;;;7.95;5.57;;;;;;;18.38;92.16;100922.59;5005123;28;20058;-54
2022/07/04 03:34:43;;;;;;;9.77;4.70;;;;;;;18.39;91.28;100917.13;5012638;28;20637;-58
2022/07/04 03:37:10;;;;;;;6.18;5.53;;;;;;;18.41;92.10;100922.31;4987043;28;20060;-56
2022/07/04 03:39:38;;;;;;;7.95;5.97;;;;;;;18.43;92.97;100925.72;5004676;28;20062;-55
2022/07/04 03:42:05;;;;;;;5.80;5.20;;;;;;;18.40;93.07;100925.97;5004970;28;20050;-55
2022/07/04 03:44:32;;;;;;;7.32;5.50;;;;;;;18.38;93.30;100933.25;5022050;28;20049;-56
2022/07/04 03:47:00;;;;;;;10.15;4.80;;;;;;;18.44;92.24;100933.56;5001002;28;20069;-56
2022/07/04 03:49:27;;;;;;;7.25;4.32;;;;;;;18.52;91.30;100935.56;5008311;28;20057;-55
2022/07/04 03:51:54;;;;;;;7.88;5.43;;;;;;;18.60;90.52;100933.06;5008302;28;20049;-55
2022/07/04 03:54:22;;;;;;;6.97;4.85;;;;;;;18.63;90.85;100938.13;4996974;28;20046;-58
2022/07/04 03:56:49;;;;;;;7.68;5.50;;;;;;;18.65;90.93;100938.84;5006443;28;20053;-55
2022/07/04 03:59:16;;;;;;;8.00;5.00;;;;;;;18.62;91.13;100944.44;5005748;28;20065;-58
2022/07/04 04:01:43;;;;;;;6.30;5.03;;;;;;;18.55;91.53;100942.44;5001640;28;20050;-57
2022/07/04 04:06:56;;;;;;;8.18;6.63;;;;;;;18.44;93.00;100962.88;5006422;28;20066;-54
2022/07/04 04:09:24;;;;;;;10.95;5.70;;;;;;;18.41;93.24;100963.13;5006338;28;20054;-57
2022/07/04 04:11:52;;;;;;;10.35;5.90;;;;;;;18.46;93.00;100971.63;5006262;28;20054;-57
2022/07/04 04:14:19;;;;;;;5.68;5.07;;;;;;;18.52;93.11;100980.88;5005189;28;20455;-56
2022/07/04 04:16:46;;;;;;;12.55;6.75;;;;;;;18.45;93.73;100982.38;5004586;28;20046;-55
2022/07/04 04:19:13;;;;;;;13.80;7.03;;;;;;;18.46;93.76;100990.28;5005625;28;20814;-55
2022/07/04 04:21:40;;;;;;;7.95;5.55;;;;;;;18.51;92.95;100991.66;5001723;28;20053;-54
2022/07/04 04:24:08;;;;;;;9.32;5.60;;;;;;;18.58;92.45;100990.16;5002921;28;20057;-57
2022/07/04 04:26:35;;;;;;;11.77;6.22;;;;;;;18.65;91.70;100992.19;4978843;28;20053;-52
2022/07/04 04:29:02;;;;;;;11.05;5.50;;;;;;;18.71;91.41;100982.81;4997775;28;20041;-54
2022/07/04 04:31:30;;;;;;;8.77;6.13;;;;;;;18.71;91.68;100980.16;4981763;28;20157;-57
2022/07/04 04:33:58;;;;;;;9.35;5.75;;;;;;;18.71;91.26;100975.66;5002369;28;20057;-55
2022/07/04 04:36:25;;;;;;;7.00;5.47;;;;;;;18.78;91.25;100976.00;5001489;28;20058;-57
2022/07/04 04:38:52;;;;;;;13.45;5.80;;;;;;;18.83;90.81;100983.59;5003650;28;20085;-57
2022/07/04 04:41:19;;;;;;;9.95;6.45;;;;;;;18.78;91.14;100981.31;4998001;28;20064;-57
2022/07/04 04:43:46;;;;;;;8.38;5.80;;;;;;;18.82;90.84;100979.19;5005335;28;20076;-56
2022/07/04 04:46:19;;;;;;;9.90;5.47;;;;;;;18.88;90.33;100978.69;4999618;28;20058;-54
2022/07/04 04:48:46;;;;;;;11.73;6.53;;;;;;;18.96;89.89;100984.19;5002939;28;20065;-56
2022/07/04 04:51:13;;;;;;;10.45;5.35;;;;;;;19.03;89.73;100982.66;5004940;28;20083;-54
2022/07/04 04:53:41;;;;;;;10.48;6.38;;;;;;;19.06;89.49;100979.72;5008093;28;20049;-51
2022/07/04 04:56:08;;;;;;;12.55;5.82;;;;;;;19.11;89.08;100990.81;5006375;28;20046;-55
2022/07/04 04:58:35;;;;;;;10.40;5.70;;;;;;;19.28;88.03;100991.16;5005508;28;20052;-57
2022/07/04 05:01:02;;;;;;;8.90;5.43;;;;;;;19.37;87.59;100995.66;5008378;28;20060;-55
2022/07/04 05:03:49;;;;;;;5.90;4.70;;;;;;;19.33;87.47;101003.09;5012626;28;20558;-56
2022/07/04 05:06:18;;;;;;;9.35;5.95;;;;;;;19.33;87.58;101004.94;5007849;28;20061;-54
2022/07/04 05:08:45;;;;;;;7.72;4.88;;;;;;;19.31;87.74;101006.88;5002496;28;20045;-59
2022/07/04 05:11:12;;;;;;;6.85;5.13;;;;;;;19.48;87.04;101011.53;5003319;28;20065;-54
2022/07/04 05:13:39;;;;;;;8.63;5.88;;;;;;;19.42;87.30;101010.28;5009617;28;20058;-53
2022/07/04 05:16:06;;;;;;;10.30;5.68;;;;;;;19.27;88.11;101000.97;5000198;28;20062;-52
2022/07/04 05:18:34;;;;;;;7.15;4.72;;;;;;;19.38;87.75;101010.69;5006241;28;20062;-54
2022/07/04 05:21:01;;;;;;;9.90;5.47;;;;;;;19.49;87.27;101006.06;5011081;28;20054;-52
2022/07/04 05:23:28;;;;;;;12.68;6.13;;;;;;;19.41;86.76;101018.44;5019987;28;20073;-55
2022/07/04 05:25:56;;;;;;;11.23;5.63;;;;;;;19.25;87.46;101018.94;5016123;28;20049;-56
2022/07/04 05:28:23;;;;;;;8.43;5.55;;;;;;;19.15;87.90;101016.25;5003345;28;20053;-55
2022/07/04 05:30:51;;;;;;;10.23;5.13;;;;;;;19.19;88.17;101023.03;5007197;28;20487;-52
2022/07/04 05:33:18;;;;;;;12.60;5.57;;;;;;;19.20;87.50;101029.19;5004512;28;20561;-52
2022/07/04 05:35:45;;;;;;;18.23;5.50;;;;;;;19.16;87.30;101039.28;4998762;28;20042;-58
2022/07/04 05:38:13;;;;;;;9.07;4.97;;;;;;;19.15;87.41;101036.78;5002989;28;20050;-55
2022/07/04 05:40:40;;;;;;;11.70;4.63;;;;;;;19.09;87.50;101037.28;5000196;28;20061;-52
2022/07/04 05:43:07;;;;;;;9.10;4.97;;;;;;;19.00;87.43;101041.63;5009338;28;20073;-62
2022/07/04 05:45:34;;;;;;;10.60;4.25;;;;;;;18.94;87.39;101045.66;5001730;28;20053;-53
2022/07/04 05:48:02;;;;;;;4.80;3.85;;;;;;;18.92;87.57;101044.13;5002271;28;20669;-58
2022/07/04 05:50:29;;;;;;;7.57;4.50;;;;;;;18.86;87.47;101044.66;5002899;28;20050;-50
2022/07/04 05:52:59;;;;;;;6.78;3.85;;;;;;;18.85;87.13;101040.28;5011727;28;20057;-53
2022/07/04 05:55:26;;;;;;;4.70;3.17;;;;;;;18.99;85.91;101034.59;5007108;28;20065;-50
2022/07/04 05:57:53;;;;;;;9.95;3.80;;;;;;;19.06;84.84;101046.44;5012240;28;20445;-51
2022/07/04 06:00:21;;;;;;;11.43;4.05;;;;;;;19.00;84.49;101041.63;5014680;28;20054;-50
2022/07/04 06:02:48;;;;;;;8.55;3.80;;;;;;;19.03;83.74;101046.69;5012488;28;20046;-52
2022/07/04 06:05:15;;;;;;;6.38;3.17;;;;;;;19.04;83.36;101039.53;5009402;28;20684;-56
2022/07/04 06:07:43;;;;;;;12.52;3.05;;;;;;;19.16;82.56;101051.78;4998446;28;20402;-52
2022/07/04 06:10:10;;;;;;;6.32;2.70;;;;;;;19.37;81.68;101041.03;5011559;28;20045;-55
2022/07/04 06:12:37;;;;;;;6.45;2.67;;;;;;;19.55;80.35;101041.22;5014189;28;20067;-53
2022/07/04 06:15:06;;;;;;;12.18;2.92;;;;;;;19.51;80.05;101046.00;5011179;28;20073;-55
2022/07/04 06:17:33;;;;;;;4.85;2.20;;;;;;;19.53;79.75;101049.34;5011776;28;20502;-53
2022/07/04 06:20:00;;;;;;;7.00;2.90;;;;;;;19.56;79.08;101054.44;5015670;28;20053;-54
2022/07/04 06:22:28;;;;;;;8.00;2.50;;;;;;;19.49;78.89;101053.28;5011184;28;20439;-54
2022/07/04 06:24:55;;;;;;;10.73;2.72;;;;;;;19.40;78.85;101059.44;5009360;28;20049;-57
2022/07/04 06:27:22;;;;;;;4.40;2.15;;;;;;;19.32;79.14;101057.47;5008587;28;20050;-58
2022/07/04 06:29:49;;;;;;;6.25;2.47;;;;;;;19.42;78.97;101060.16;5017806;28;20057;-57
2022/07/04 06:32:17;;;;;;;4.13;1.80;;;;;;;19.59;74.42;101066.69;5006132;28;20673;-52
2022/07/04 06:37:29;;;;;;;5.97;1.20;;;;;;;19.89;69.04;101069.25;5020380;28;20045;-50
2022/07/04 06:40:03;;;;;;;4.85;1.48;;;;;;;20.15;67.23;101074.88;5008510;28;20073;-51
2022/07/04 06:42:30;;;;;;;7.97;1.17;;;;;;;20.34;63.40;101084.72;5013386;28;20461;-51
2022/07/04 06:44:57;;;;;;;7.18;0.90;;;;;;;20.21;61.00;101094.84;4985365;28;20719;-52
2022/07/04 06:47:24;;;;;;;3.33;1.13;;;;;;;20.05;60.60;101095.44;4997069;28;20095;-51
2022/07/04 06:49:51;;;;;;;2.85;1.00;;;;;;;19.97;60.95;101095.28;4983262;28;20070;-52
2022/07/04 06:52:19;;;;;;;8.02;1.48;;;;;;;19.94;60.91;101085.69;4996427;28;20066;-51
2022/07/04 06:54:46;;;;;;;3.05;0.98;;;;;;;20.12;60.41;101098.38;5011273;28;20057;-50
2022/07/04 06:57:13;;;;;;;1.65;0.80;;;;;;;20.27;60.20;101091.63;5002304;28;20062;-52
2022/07/04 06:59:57;;;;;;;3.17;0.85;;;;;;;20.26;60.39;101091.75;4985728;28;20058;-52
2022/07/04 07:02:24;;;;;;;1.48;0.88;;;;;;;20.43;60.02;101089.19;5001497;28;20054;-51
2022/07/04 07:04:51;;;;;;;4.40;1.48;;;;;;;20.57;59.63;101103.16;5005068;28;20050;-53
2022/07/04 07:07:18;;;;;;;3.72;1.00;;;;;;;20.61;58.83;101092.03;4997471;28;20061;-54
2022/07/04 07:09:46;;;;;;;14.93;1.10;;;;;;;20.80;57.68;101109.00;5003445;28;20045;-53
2022/07/04 07:12:13;;;;;;;7.57;1.15;;;;;;;20.95;57.44;101096.88;4989471;28;20085;-52
2022/07/04 07:14:41;;;;;;;2.88;0.65;;;;;;;20.85;55.54;101107.63;4995178;28;20157;-54
2022/07/04 07:17:08;;;;;;;2.20;0.85;;;;;;;20.81;56.53;101102.69;4985028;28;22171;-51
2022/07/04 07:19:35;;;;;;;2.63;0.80;;;;;;;20.85;56.62;101102.25;4998533;28;20060;-51
2022/07/04 07:22:02;;;;;;;3.10;0.80;;;;;;;20.89;56.70;101100.13;4995708;28;20064;-54
2022/07/04 07:24:32;;;;;;;7.18;1.10;;;;;;;20.98;56.15;101096.56;5011423;28;20060;-52
2022/07/04 07:27:00;;;;;;;3.70;1.25;;;;;;;21.08;56.51;101100.06;5010637;28;20096;-54
2022/07/04 07:29:27;;;;;;;8.38;1.02;;;;;;;21.14;56.50;101106.66;5008578;28;20057;-54
2022/07/04 07:31:54;;;;;;;2.80;1.20;;;;;;;21.22;55.85;101096.91;5002549;28;20068;-51
2022/07/04 07:34:22;;;;;;;6.07;0.90;;;;;;;21.44;55.31;101092.19;5006416;28;20150;-53
2022/07/04 07:36:49;;;;;;;1.50;0.70;;;;;;;21.86;54.54;101107.69;4987006;28;20045;-53
2022/07/04 07:39:16;;;;;;;3.22;1.10;;;;;;;22.03;53.08;101109.56;4986621;28;20050;-52
2022/07/04 07:41:43;;;;;;;7.20;1.23;;;;;;;21.73;54.12;101108.06;4999942;28;20060;-54
2022/07/04 07:44:10;;;;;;;5.97;1.05;;;;;;;22.02;53.26;101123.09;4981043;28;20894;-53
2022/07/04 07:46:37;;;;;;;6.32;0.75;;;;;;;21.38;53.27;101130.25;5000524;28;20046;-49
2022/07/04 07:49:04;;;;;;;2.83;0.85;;;;;;;21.13;54.52;101135.28;5015587;28;20068;-53
2022/07/04 07:51:32;;;;;;;6.00;0.90;;;;;;;20.79;56.01;101134.94;4998406;28;20061;-57
2022/07/04 07:53:59;;;;;;;5.65;1.10;;;;;;;20.99;56.15;101130.38;5011521;28;20061;-57
2022/07/04 07:56:43;;;;;;;2.92;0.95;;;;;;;21.04;55.46;101136.16;5008170;28;20053;-59
2022/07/04 07:59:11;;;;;;;8.40;0.88;;;;;;;21.17;54.06;101143.84;5012538;28;20057;-57
2022/07/04 08:01:38;;;;;;;8.35;1.20;;;;;;;21.26;52.97;101131.44;5018358;28;20057;-57
2022/07/04 08:06:50;;;;;;;;;;;;;;;21.30;53.87;101130.09;5006440;28;20061;-58
2022/07/04 08:09:38;;;;;;;2.28;0.75;;;;;;;21.29;53.74;101134.63;5005703;28;19947;-57
2022/07/04 08:12:06;;;;;;;9.80;1.48;;;;;;;21.49;53.51;101127.41;5015086;28;20049;-58
2022/07/04 08:14:34;;;;;;;4.93;0.88;;;;;;;21.58;53.25;101120.31;5007416;28;20057;-58
2022/07/04 08:17:01;;;;;;;6.82;1.27;;;;;;;21.73;53.30;101110.75;5008719;28;20539;-57
2022/07/04 08:19:29;;;;;;;2.83;1.20;;;;;;;22.00;53.08;101120.56;5015987;28;20056;-58
2022/07/04 08:21:56;;;;;;;2.85;1.00;;;;;;;22.09;51.68;101129.53;5009942;28;20054;-56
2022/07/04 08:24:42;;;;;;;8.68;0.88;;;;;;;21.83;51.19;101138.31;5012142;28;20060;-54
2022/07/04 08:27:09;;;;;;;2.92;0.90;;;;;;;21.61;51.28;101146.78;5016982;28;20042;-58
2022/07/04 08:29:37;;;;;;;2.88;1.00;;;;;;;21.13;52.28;101137.09;5020747;28;20060;-58
2022/07/04 08:32:07;;;;;;;2.70;1.17;;;;;;;21.15;52.13;101133.28;5015969;28;20058;-56
2022/07/04 08:34:35;;;;;;;3.95;1.17;;;;;;;21.16;52.11;101126.09;5007792;28;20390;-58
2022/07/04 08:37:02;;;;;;;7.55;1.38;;;;;;;21.29;51.70;101131.94;5015237;28;20056;-56
2022/07/04 08:39:30;;;;;;;2.05;0.80;;;;;;;21.27;50.88;101133.94;5019486;28;20056;-55
2022/07/04 08:42:03;;;;;;;2.85;0.77;;;;;;;21.29;51.01;101139.13;5005441;28;20053;-57
2022/07/04 08:44:30;;;;;;;2.67;0.70;;;;;;;21.49;51.17;101138.94;4999421;28;20108;-56
2022/07/04 08:46:57;;;;;;;6.10;1.52;;;;;;;21.57;51.23;101143.56;5016796;28;20057;-55
2022/07/04 08:49:30;;;;;;;9.65;1.40;;;;;;;21.62;50.80;101132.41;5015137;28;20587;-56
2022/07/04 08:52:08;;;;;;;2.33;0.90;;;;;;;21.82;50.92;101138.47;5013838;28;20040;-59
2022/07/04 09:00:06;;;;;;;3.25;0.80;;;;;;;21.93;52.16;101123.03;5013793;28;19951;-58
2022/07/04 09:02:34;;;;;;;4.72;0.80;;;;;;;22.19;51.80;101131.16;5021719;28;20049;-57
2022/07/04 09:05:02;;;;;;;3.17;1.00;;;;;;;22.05;51.78;101134.34;5009123;28;20069;-56
2022/07/04 09:07:29;;;;;;;3.92;1.00;;;;;;;21.85;51.84;101125.63;5015982;28;21070;-57
2022/07/04 09:09:58;;;;;;;6.35;1.10;;;;;;;22.07;51.82;101126.19;5020667;28;20049;-56
2022/07/04 09:12:25;;;;;;;3.58;1.10;;;;;;;22.24;49.54;101139.63;5012095;28;20060;-57
2022/07/04 09:14:52;;;;;;;5.40;1.20;;;;;;;22.35;49.27;101140.38;5010705;28;20100;-56
2022/07/04 09:17:20;;;;;;;2.45;1.02;;;;;;;22.42;50.07;101136.06;5017203;28;20072;-57
2022/07/04 09:20:12;;;;;;;7.72;1.05;;;;;;;22.26;49.77;101139.47;5019174;28;20054;-57
2022/07/04 09:22:39;;;;;;;1.80;0.77;;;;;;;22.25;49.10;101153.88;5003051;28;20056;-57
2022/07/04 09:25:07;;;;;;;5.28;0.85;;;;;;;22.07;49.74;101142.28;5018340;28;20054;-55
2022/07/04 09:27:39;;;;;;;4.63;1.67;;;;;;;21.93;51.44;101135.56;5021142;28;20053;-58
2022/07/04 09:30:07;;;;;;;4.43;1.17;;;;;;;22.16;51.06;101146.75;5008698;28;20058;-58
2022/07/04 09:32:37;;;;;;;3.38;0.93;;;;;;;22.13;51.38;101145.22;4999628;28;20064;-56
2022/07/04 09:35:07;;;;;;;6.85;1.40;;;;;;;22.04;51.56;101138.03;5008293;28;20494;-57
2022/07/04 09:37:36;;;;;;;5.70;1.17;;;;;;;22.25;51.24;101124.38;5013539;28;20050;-57
2022/07/04 09:40:05;;;;;;;3.50;1.00;;;;;;;22.36;50.73;101125.97;5013486;28;20054;-58
2022/07/04 09:42:41;;;;;;;6.00;0.95;;;;;;;22.33;50.35;101137.84;5020643;28;20415;-58
2022/07/04 09:45:11;;;;;;;2.30;0.70;;;;;;;22.60;48.91;101136.03;5006113;28;20045;-59
2022/07/04 09:47:40;;;;;;;3.08;0.90;;;;;;;22.33;49.84;101127.09;5019130;28;20060;-57
2022/07/04 09:50:13;;;;;;;2.72;1.10;;;;;;;22.45;49.44;101139.28;5010182;28;20050;-57
2022/07/04 09:52:47;;;;;;;3.97;1.13;;;;;;;22.44;49.05;101144.81;5006640;28;20054;-58
2022/07/04 09:55:23;;;;;;;2.13;0.70;;;;;;;22.43;47.86;101143.97;4993395;28;20510;-58
2022/07/04 09:57:51;;;;;;;4.50;1.10;;;;;;;22.48;45.99;101140.84;4994499;28;20062;-58
2022/07/04 10:00:42;;;;;;;9.13;1.08;;;;;;;22.66;45.38;101148.84;4996852;28;20132;-58
2022/07/04 10:03:16;;;;;;;3.72;1.10;;;;;;;22.89;45.23;101152.72;4990873;28;20466;-58
2022/07/04 10:06:03;;;;;;;3.05;0.98;;;;;;;22.89;45.57;101136.63;5002492;28;20058;-59
2022/07/04 10:08:31;;;;;;;7.75;1.02;;;;;;;23.09;45.51;101141.78;4990326;28;20053;-58
2022/07/04 10:11:00;;;;;;;2.70;0.88;;;;;;;23.30;45.56;101152.13;5006756;28;20142;-59
2022/07/04 10:13:35;;;;;;;9.55;1.40;;;;;;;23.60;45.11;101151.59;4992901;28;20518;-58
2022/07/04 10:16:02;;;;;;;5.88;0.80;;;;;;;23.73;44.50;101152.00;4997997;28;20123;-60
2022/07/04 10:18:30;;;;;;;2.03;0.80;;;;;;;23.88;43.22;101146.84;4989656;28;20059;-59
2022/07/04 10:20:57;;;;;;;4.93;0.90;;;;;;;24.06;42.55;101141.31;4970814;28;20058;-58
2022/07/04 10:23:30;;;;;;;5.50;0.80;;;;;;;24.38;42.72;101143.25;4993453;28;20061;-59
2022/07/04 10:25:58;;;;;;;2.75;1.05;;;;;;;24.35;42.05;101140.00;4997308;28;20566;-58
2022/07/04 10:28:26;;;;;;;9.80;1.35;;;;;;;24.56;41.53;101145.75;4992671;28;20050;-59
2022/07/04 10:30:56;;;;;;;5.13;1.08;;;;;;;24.42;41.13;101143.75;4997595;28;20053;-60
2022/07/04 10:33:28;;;;;;;5.78;1.23;;;;;;;24.34;40.84;101144.53;4990027;28;20134;-56
2022/07/04 10:36:03;;;;;;;3.65;0.85;;;;;;;24.41;40.60;101131.31;4990553;28;20183;-58
2022/07/04 10:38:49;;;;;;;5.97;1.13;;;;;;;24.38;40.33;101150.47;4997075;28;20417;-57
2022/07/04 10:41:21;;;;;;;3.80;1.27;;;;;;;24.43;40.54;101148.13;4970183;28;20053;-59
2022/07/04 10:43:48;;;;;;;4.90;1.27;;;;;;;24.48;40.33;101151.97;4996462;28;20046;-58
2022/07/04 10:46:15;;;;;;;2.70;0.70;;;;;;;24.45;40.61;101154.16;4989839;28;20058;-58
2022/07/04 10:48:49;;;;;;;4.38;1.20;;;;;;;24.89;39.28;101148.41;4996020;28;20132;-59
2022/07/04 10:51:39;;;;;;;7.32;1.02;;;;;;;25.16;39.54;101142.66;4996939;28;20062;-59
2022/07/04 10:54:09;;;;;;;3.75;1.08;;;;;;;25.04;39.43;101125.16;4993265;28;20452;-56
2022/07/04 10:56:39;;;;;;;1.02;0.60;;;;;;;24.81;39.58;101135.81;4986227;28;20399;-58
2022/07/04 10:59:25;;;;;;;13.02;1.58;;;;;;;24.67;40.11;101140.00;5002039;28;20525;-59
2022/07/04 11:02:07;;;;;;;5.25;1.33;;;;;;;24.66;39.89;101140.19;4988885;28;20054;-60
2022/07/04 11:04:54;;;;;;;4.38;1.17;;;;;;;24.33;40.35;101123.19;4992527;28;20434;-60
2022/07/04 11:07:42;;;;;;;5.93;1.27;;;;;;;24.34;40.39;101127.56;4984221;28;20057;-60
2022/07/04 11:10:12;;;;;;;5.70;1.58;;;;;;;24.14;40.71;101145.88;4993036;28;20058;-58
2022/07/04 11:12:58;;;;;;;7.07;0.90;;;;;;;23.68;41.50;101137.34;4987749;28;20050;-60
2022/07/04 11:15:31;;;;;;;4.18;1.10;;;;;;;24.01;40.96;101122.16;4983178;28;20548;-59
2022/07/04 11:18:04;;;;;;;3.05;1.30;;;;;;;24.00;42.05;101117.75;4987790;28;20058;-60
2022/07/04 11:20:34;;;;;;;4.88;1.17;;;;;;;24.73;41.13;101125.91;4987178;28;20163;-60
2022/07/04 11:23:12;;;;;;;8.13;0.98;;;;;;;24.92;40.63;101129.22;4985960;28;20065;-59
2022/07/04 11:25:44;;;;;;;1.85;0.80;;;;;;;24.49;41.11;101133.97;4982603;28;20051;-57
2022/07/04 11:28:23;;;;;;;6.85;1.15;;;;;;;24.02;41.90;101121.16;4983015;28;20050;-60
2022/07/04 11:31:11;;;;;;;3.25;0.77;;;;;;;24.11;42.07;101119.31;4986643;28;20057;-58
2022/07/04 11:33:41;;;;;;;6.68;1.25;;;;;;;24.43;41.30;101119.34;4981306;28;20137;-60
2022/07/04 11:36:20;;;;;;;2.95;0.80;;;;;;;24.65;40.08;101112.44;4986240;28;20050;-59
2022/07/04 11:38:58;;;;;;;3.88;1.13;;;;;;;24.19;40.78;101111.25;4988770;28;20050;-57
2022/07/04 11:47:08;;;;;;;2.47;0.90;;;;;;;25.27;38.69;101105.59;4987055;28;20514;-59
2022/07/04 11:49:37;;;;;;;6.65;0.90;;;;;;;25.49;38.27;101105.66;4993798;28;20068;-59
2022/07/04 11:52:04;;;;;;;4.03;1.00;;;;;;;25.12;38.55;101122.44;4960223;28;20050;-59
2022/07/04 11:54:31;;;;;;;9.10;1.30;;;;;;;24.92;39.79;101111.22;4993848;28;20042;-59